Time;durP1;ratioP1;P1;durP2;ratioP2;P2;SDS_P1;SDS_P2;PMS_P1;PMS_P2;Temp;Humidity;BMP_temperature;BMP_pressure;BME280_temperature;BME280_humidity;BME280_pressure;Samples;Min_cycle;Max_cycle;Signal;HPM_P1;HPM_P2
2022/01/23 00:00:16;;;;;;;71.07;27.70;;;;;;;-5.01;nan;101545.38;5033453;28;20037;-72
2022/01/23 00:02:47;;;;;;;66.40;27.30;;;;;;;-4.84;nan;101577.72;5013270;28;20041;-71
2022/01/23 00:05:14;;;;;;;71.93;27.60;;;;;;;-4.86;nan;101563.31;5032228;28;20108;-72
2022/01/23 00:07:41;;;;;;;66.90;28.83;;;;;;;-4.85;nan;101565.81;5016478;28;20025;-72
2022/01/23 00:10:10;;;;;;;68.82;27.83;;;;;;;-4.77;nan;101565.31;5034226;28;20392;-71
2022/01/23 00:12:43;;;;;;;66.55;27.48;;;;;;;-4.78;nan;101564.50;5015792;28;20088;-71
2022/01/23 00:17:55;;;;;;;67.05;27.33;;;;;;;-4.81;nan;101569.84;5033789;28;20039;-70
2022/01/23 00:20:21;;;;;;;66.13;27.13;;;;;;;-4.81;nan;101577.53;5010003;28;20052;-72
2022/01/23 00:22:53;;;;;;;66.32;26.55;;;;;;;-4.86;nan;101571.88;5029878;28;20105;-71
2022/01/23 00:30:49;;;;;;;66.57;26.30;;;;;;;-4.87;nan;101577.91;5030732;28;20546;-72
2022/01/23 00:33:15;;;;;;;60.92;25.48;;;;;;;-5.15;nan;101551.38;5033244;28;20067;-71
2022/01/23 00:35:43;;;;;;;60.00;24.70;;;;;;;-4.96;nan;101599.03;5033099;28;20056;-72
2022/01/23 00:38:10;;;;;;;57.90;24.25;;;;;;;-5.00;nan;101589.88;5034584;28;20037;-70
2022/01/23 00:40:36;;;;;;;57.70;23.65;;;;;;;-5.03;nan;101596.00;5032895;28;20046;-72
2022/01/23 00:43:12;;;;;;;61.40;24.17;;;;;;;-5.25;nan;101582.84;5015268;28;20047;-71
2022/01/23 00:45:44;;;;;;;59.15;23.58;;;;;;;-5.49;nan;101557.72;5034073;28;20076;-71
2022/01/23 00:48:11;;;;;;;60.47;23.42;;;;;;;-5.35;nan;101590.28;5013816;28;20063;-71
2022/01/23 00:50:43;;;;;;;60.55;23.27;;;;;;;-5.33;nan;101588.44;5031434;28;20057;-71
2022/01/23 00:53:10;;;;;;;59.70;22.63;;;;;;;-5.26;nan;101604.31;5032275;28;20045;-73
2022/01/23 00:55:38;;;;;;;58.47;23.88;;;;;;;-5.26;nan;101605.13;5032190;28;20052;-72
2022/01/23 00:58:04;;;;;;;63.65;24.27;;;;;;;-5.29;nan;101605.31;5014995;28;20403;-73
2022/01/23 01:00:29;;;;;;;56.30;22.60;;;;;;;-5.56;nan;101564.97;5032300;28;20037;-71
2022/01/23 01:02:55;;;;;;;52.92;21.92;;;;;;;-5.40;nan;101587.97;5016446;28;20097;-70
2022/01/23 01:05:21;;;;;;;51.88;22.02;;;;;;;-5.42;nan;101584.69;5032757;28;20033;-71
2022/01/23 01:07:47;;;;;;;58.25;21.90;;;;;;;-5.38;nan;101601.56;5034470;28;20029;-70
2022/01/23 01:10:20;;;;;;;59.78;22.35;;;;;;;-5.45;nan;101599.44;5032852;28;20037;-71
2022/01/23 01:12:47;;;;;;;46.88;19.77;;;;;;;-5.52;nan;101588.72;5011141;28;20364;-71
2022/01/23 01:36:45;;;;;;;44.45;18.95;;;;;;;-5.60;nan;101601.19;5025581;28;20435;-72
2022/01/23 01:39:11;;;;;;;46.80;19.15;;;;;;;-5.61;nan;101594.38;5036588;28;20037;-72
2022/01/23 01:41:39;;;;;;;50.65;20.02;;;;;;;-5.65;nan;101595.47;5030653;28;20068;-70
2022/01/23 01:44:05;;;;;;;47.75;20.17;;;;;;;-5.72;nan;101587.34;5036805;28;20029;-71
2022/01/23 01:46:31;;;;;;;51.50;20.00;;;;;;;-5.65;nan;101603.19;5012416;28;20088;-70
2022/01/23 01:48:57;;;;;;;50.72;20.17;;;;;;;-5.80;nan;101566.44;5014192;28;20038;-70
2022/01/23 01:51:24;;;;;;;48.17;19.27;;;;;;;-5.78;nan;101562.03;5009164;28;20038;-71
2022/01/23 01:53:53;;;;;;;47.10;19.70;;;;;;;-5.73;nan;101572.84;5030408;28;20037;-71
2022/01/23 01:56:19;;;;;;;;;;;;;;;-5.65;nan;101582.66;5033909;28;20033;-71
2022/01/23 02:09:25;;;;;;;48.13;19.42;;;;;;;-5.77;nan;101545.72;5033360;28;20037;-72
2022/01/23 02:55:09;;;;;;;33.22;12.70;;;;;;;-5.81;nan;101583.56;5031176;28;20045;-71
2022/01/23 03:00:16;;;;;;;42.45;17.75;;;;;;;-5.88;nan;101584.84;5031680;28;20069;-71
2022/01/23 03:02:46;;;;;;;38.05;15.05;;;;;;;-5.92;nan;101585.91;5010963;28;20545;-71
2022/01/23 03:05:14;;;;;;;34.28;13.77;;;;;;;-6.05;nan;101577.31;5015233;28;20057;-71
2022/01/23 03:10:27;;;;;;;32.20;11.43;;;;;;;-6.10;nan;101592.16;5012709;28;20399;-72
2022/01/23 03:31:42;;;;;;;22.23;8.70;;;;;;;-5.93;nan;101581.72;5030350;28;20399;-71
2022/01/23 03:34:08;;;;;;;22.27;8.82;;;;;;;-5.97;nan;101569.19;5031212;28;20037;-72
2022/01/23 03:36:34;;;;;;;20.95;8.60;;;;;;;-5.88;nan;101587.41;5002845;28;20033;-71
2022/01/23 03:38:59;;;;;;;23.35;9.52;;;;;;;-5.89;nan;101570.38;5005106;28;20774;-71
2022/01/23 03:41:25;;;;;;;20.45;9.20;;;;;;;-5.91;nan;101569.63;5031761;28;20038;-71
2022/01/23 03:43:50;;;;;;;27.73;9.68;;;;;;;-6.01;nan;101563.41;5030286;28;20029;-72
2022/01/23 03:51:48;;;;;;;23.55;8.75;;;;;;;-5.99;nan;101588.03;5028623;28;20483;-71
2022/01/23 03:54:14;;;;;;;21.33;9.02;;;;;;;-6.02;nan;101588.22;5031735;28;20064;-71
2022/01/23 03:56:39;;;;;;;28.60;9.18;;;;;;;-6.07;nan;101577.41;5031873;28;20041;-71
2022/01/23 03:59:05;;;;;;;19.98;8.50;;;;;;;-6.12;nan;101578.59;5013615;28;20033;-71
2022/01/23 04:01:30;;;;;;;21.42;8.52;;;;;;;-6.12;nan;101576.03;5034406;28;20395;-71
2022/01/23 04:04:01;;;;;;;23.35;8.60;;;;;;;-6.16;nan;101579.66;5023566;28;20026;-71
2022/01/23 04:06:26;;;;;;;32.20;11.65;;;;;;;-6.19;nan;101572.16;5010200;28;20054;-70
2022/01/23 04:08:51;;;;;;;22.42;9.98;;;;;;;-6.13;nan;101575.22;5002803;28;20065;-72
2022/01/23 04:11:17;;;;;;;33.70;13.15;;;;;;;-6.10;nan;101574.22;5027349;28;20033;-71
2022/01/23 04:13:48;;;;;;;30.30;12.90;;;;;;;-6.40;nan;101521.19;5016100;28;20034;-71
2022/01/23 04:45:37;;;;;;;22.27;9.30;;;;;;;-6.07;nan;101562.03;5034583;28;20491;-70
2022/01/23 05:06:43;;;;;;;20.10;8.40;;;;;;;-5.90;nan;101598.66;5036737;28;20025;-73
2022/01/23 05:09:14;;;;;;;22.63;8.93;;;;;;;-5.92;nan;101588.47;5030067;28;20040;-71
2022/01/23 05:11:48;;;;;;;23.05;9.48;;;;;;;-5.99;nan;101576.97;5020309;28;20041;-70
2022/01/23 05:14:14;;;;;;;23.63;8.90;;;;;;;-5.97;nan;101576.88;5037981;28;20040;-72
2022/01/23 05:16:39;;;;;;;22.20;9.60;;;;;;;-5.96;nan;101573.38;5028175;28;20554;-72
2022/01/23 05:19:07;;;;;;;21.38;9.25;;;;;;;-5.97;nan;101571.75;5037334;28;20033;-71
2022/01/23 05:21:53;;;;;;;28.15;10.88;;;;;;;-6.01;nan;101553.13;5016740;28;20034;-71
2022/01/23 05:24:24;;;;;;;23.67;9.88;;;;;;;-5.92;nan;101565.41;5032717;28;20033;-70
2022/01/23 05:26:49;;;;;;;25.15;9.35;;;;;;;-5.74;nan;101590.91;5015946;28;20139;-71
2022/01/23 05:29:15;;;;;;;24.42;9.77;;;;;;;-5.78;nan;101585.13;5033115;28;20108;-70
2022/01/23 05:31:42;;;;;;;25.52;10.32;;;;;;;-5.82;nan;101591.34;5032556;28;20432;-70
2022/01/23 05:34:07;;;;;;;35.63;13.68;;;;;;;-5.83;nan;101587.94;5028503;28;20120;-71
2022/01/23 05:36:33;;;;;;;25.80;11.23;;;;;;;-5.75;nan;101597.75;5032782;28;20116;-71
2022/01/23 05:38:59;;;;;;;26.17;10.75;;;;;;;-5.81;nan;101588.69;5012334;28;20042;-71
2022/01/23 05:41:25;;;;;;;21.55;9.27;;;;;;;-5.78;nan;101580.00;5014798;28;20029;-71
2022/01/23 05:43:51;;;;;;;20.35;8.75;;;;;;;-5.80;nan;101572.38;5014586;28;20045;-72
2022/01/23 05:46:17;;;;;;;20.52;8.48;;;;;;;-5.65;nan;101586.06;5033260;28;20029;-72
2022/01/23 05:48:43;;;;;;;20.10;8.15;;;;;;;-5.72;nan;101565.97;5020171;28;20037;-70
2022/01/23 05:51:12;;;;;;;17.25;8.02;;;;;;;-5.55;nan;101591.47;5033488;28;20495;-71
2022/01/23 05:53:39;;;;;;;22.38;8.57;;;;;;;-5.47;nan;101602.09;5033153;28;20030;-71
2022/01/23 05:56:04;;;;;;;25.58;9.32;;;;;;;-5.45;nan;101594.31;5010928;28;20128;-72
2022/01/23 05:58:30;;;;;;;26.33;11.50;;;;;;;-5.43;nan;101595.88;5012690;28;20116;-71
2022/01/23 06:00:55;;;;;;;36.28;13.98;;;;;;;-5.59;nan;101572.84;5012397;28;20037;-70
2022/01/23 06:03:21;;;;;;;37.67;14.60;;;;;;;-5.50;nan;101589.47;5013197;28;20038;-70
2022/01/23 06:05:47;;;;;;;30.83;13.70;;;;;;;-5.35;nan;101614.19;5011771;28;20026;-70
2022/01/23 06:08:12;;;;;;;36.53;13.52;;;;;;;-5.43;nan;101588.19;5011033;28;20034;-71
2022/01/23 06:10:53;;;;;;;30.50;13.25;;;;;;;-5.36;nan;101598.91;5012195;28;20381;-70
2022/01/23 06:13:19;;;;;;;29.60;11.75;;;;;;;-5.51;nan;101581.84;5009215;28;20083;-70
2022/01/23 06:15:44;;;;;;;28.52;13.20;;;;;;;-5.47;nan;101594.41;5011294;28;20034;-70
2022/01/23 06:18:10;;;;;;;30.33;13.02;;;;;;;-5.39;nan;101617.88;5013882;28;20430;-71
2022/01/23 06:20:35;;;;;;;30.80;12.10;;;;;;;-5.41;nan;101622.28;5011832;28;20034;-71
2022/01/23 06:23:00;;;;;;;28.42;12.18;;;;;;;-5.43;nan;101615.59;5009928;28;20503;-70
2022/01/23 06:25:32;;;;;;;38.08;15.32;;;;;;;-5.41;nan;101627.41;5007866;28;20065;-70
2022/01/23 06:27:58;;;;;;;38.95;17.25;;;;;;;-5.49;nan;101624.47;4993316;28;20038;-70
2022/01/23 06:30:24;;;;;;;40.20;16.98;;;;;;;-5.39;nan;101629.88;5002572;28;20041;-71
2022/01/23 06:32:49;;;;;;;37.83;15.43;;;;;;;-5.31;nan;101629.44;5010688;28;20033;-72
2022/01/23 06:35:15;;;;;;;38.65;15.38;;;;;;;-5.37;nan;101608.31;5008618;28;20057;-69
2022/01/23 06:37:40;;;;;;;32.92;14.25;;;;;;;-5.36;nan;101615.13;5012716;28;20083;-71
2022/01/23 06:40:06;;;;;;;38.70;15.93;;;;;;;-5.35;nan;101615.94;5012544;28;20041;-69
2022/01/23 06:42:32;;;;;;;45.88;18.17;;;;;;;-5.29;nan;101625.88;5010070;28;20032;-69
2022/01/23 06:44:58;;;;;;;43.83;19.50;;;;;;;-5.32;nan;101620.88;5014534;28;20022;-70
2022/01/23 06:47:24;;;;;;;47.40;19.33;;;;;;;-5.24;nan;101633.28;5012378;28;20534;-70
2022/01/23 06:49:49;;;;;;;49.05;20.17;;;;;;;-5.31;nan;101609.72;5012956;28;20380;-71
2022/01/23 06:52:15;;;;;;;49.65;20.08;;;;;;;-5.25;nan;101629.88;5011668;28;20036;-70
2022/01/23 06:54:40;;;;;;;59.80;22.35;;;;;;;-5.34;nan;101615.00;5019505;28;20050;-70
2022/01/23 06:57:06;;;;;;;57.85;24.05;;;;;;;-5.43;nan;101601.00;5030959;28;20439;-70
2022/01/23 06:59:31;;;;;;;66.85;24.80;;;;;;;-5.24;nan;101631.53;5031389;28;20064;-70
2022/01/23 07:01:58;;;;;;;59.85;23.90;;;;;;;-5.30;nan;101619.06;5013563;28;20059;-68
2022/01/23 07:04:24;;;;;;;48.72;20.55;;;;;;;-5.20;nan;101632.16;5025819;28;20075;-71
2022/01/23 07:06:49;;;;;;;46.85;20.13;;;;;;;-5.22;nan;101627.16;5001000;28;20034;-69
2022/01/23 07:09:14;;;;;;;48.00;18.77;;;;;;;-5.19;nan;101626.94;5031873;28;20030;-69
2022/01/23 07:11:40;;;;;;;43.47;17.08;;;;;;;-5.36;nan;101604.88;5031597;28;20741;-70
2022/01/23 07:14:05;;;;;;;37.83;15.80;;;;;;;-5.26;nan;101619.72;5000213;28;20068;-71
2022/01/23 07:16:31;;;;;;;42.50;17.55;;;;;;;-5.20;nan;101634.75;5031214;28;20475;-70
2022/01/23 07:18:56;;;;;;;44.28;18.92;;;;;;;-5.29;nan;101622.44;5031456;28;20487;-71
2022/01/23 07:21:22;;;;;;;47.83;19.25;;;;;;;-5.17;nan;101634.53;5010358;28;20034;-71
2022/01/23 07:23:51;;;;;;;48.78;21.30;;;;;;;-5.21;nan;101633.09;4996783;28;20121;-71
2022/01/23 07:26:19;;;;;;;49.38;21.13;;;;;;;-5.16;nan;101631.06;5013553;28;20026;-72
2022/01/23 07:28:46;;;;;;;52.42;24.27;;;;;;;-5.07;nan;101651.06;5030279;28;20033;-73
2022/01/23 07:31:19;;;;;;;60.78;23.33;;;;;;;-5.04;nan;101650.06;5030611;28;20041;-72
2022/01/23 07:33:45;;;;;;;58.70;23.10;;;;;;;-5.09;nan;101634.09;5028210;28;20395;-73
2022/01/23 07:36:10;;;;;;;65.82;27.83;;;;;;;-5.11;nan;101628.22;5035076;28;20056;-73
2022/01/23 07:38:36;;;;;;;54.05;24.10;;;;;;;-5.30;nan;101592.56;5017108;28;20048;-73
2022/01/23 07:41:01;;;;;;;55.90;23.30;;;;;;;-4.94;nan;101653.72;5033023;28;20057;-73
2022/01/23 07:43:26;;;;;;;48.00;20.60;;;;;;;-4.96;nan;101642.69;5031637;28;20048;-72
2022/01/23 07:45:52;;;;;;;56.72;23.15;;;;;;;-5.03;nan;101626.84;5031208;28;20029;-73
2022/01/23 07:48:17;;;;;;;56.22;22.17;;;;;;;-5.01;nan;101622.44;5030444;28;20033;-72
2022/01/23 07:50:43;;;;;;;49.58;18.90;;;;;;;-4.97;nan;101625.66;5011044;28;20037;-72
2022/01/23 07:53:08;;;;;;;52.67;20.95;;;;;;;-5.06;nan;101606.47;5002428;28;20107;-72
2022/01/23 07:55:34;;;;;;;57.60;21.80;;;;;;;-4.93;nan;101620.25;5028189;28;20880;-74
2022/01/23 07:58:05;;;;;;;49.72;20.42;;;;;;;-4.78;nan;101651.03;5035094;28;20033;-73
2022/01/23 08:00:30;;;;;;;54.10;21.38;;;;;;;-4.89;nan;101643.16;5034498;28;20029;-75
2022/01/23 08:02:56;;;;;;;48.53;19.63;;;;;;;-4.78;nan;101661.31;5033796;28;20026;-74
2022/01/23 08:05:21;;;;;;;52.25;20.70;;;;;;;-4.77;nan;101662.97;5032273;28;20054;-74
2022/01/23 08:07:46;;;;;;;46.63;19.33;;;;;;;-4.73;nan;101661.84;5005279;28;20486;-75
2022/01/23 08:10:14;;;;;;;45.03;17.52;;;;;;;-4.67;nan;101676.88;5022777;28;20065;-74
2022/01/23 08:12:39;;;;;;;43.28;16.02;;;;;;;-4.76;nan;101667.19;5033975;28;20053;-74
2022/01/23 08:15:05;;;;;;;39.70;15.18;;;;;;;-4.70;nan;101677.91;5033054;28;20065;-74
2022/01/23 08:17:31;;;;;;;33.35;15.00;;;;;;;-4.67;nan;101678.63;5031886;28;20026;-74
2022/01/23 08:19:59;;;;;;;52.58;19.10;;;;;;;-4.77;nan;101662.97;5015498;28;20040;-72
2022/01/23 08:22:27;;;;;;;42.55;17.35;;;;;;;-4.60;nan;101675.59;5012933;28;20041;-72
2022/01/23 08:24:54;;;;;;;53.00;20.45;;;;;;;-4.55;nan;101671.00;5032757;28;20025;-73
2022/01/23 08:27:21;;;;;;;46.15;19.45;;;;;;;-4.57;nan;101662.56;5014338;28;20462;-74
2022/01/23 08:29:47;;;;;;;47.40;19.38;;;;;;;-4.49;nan;101652.63;5008387;28;20383;-75
2022/01/23 08:32:12;;;;;;;45.85;18.80;;;;;;;-4.41;nan;101657.28;5033657;28;20030;-75
2022/01/23 08:34:39;;;;;;;44.70;18.13;;;;;;;-4.28;nan;101658.16;5033353;28;20041;-74
2022/01/23 08:37:06;;;;;;;44.45;17.55;;;;;;;-4.21;nan;101661.19;5033116;28;20124;-76
2022/01/23 08:39:34;;;;;;;41.03;16.85;;;;;;;-4.14;nan;101665.00;5031401;28;20037;-71
2022/01/23 08:42:00;;;;;;;36.67;16.83;;;;;;;-4.09;nan;101673.25;5029982;28;20037;-76
2022/01/23 08:44:28;;;;;;;39.45;15.38;;;;;;;-4.16;nan;101646.28;5014801;28;20663;-76
2022/01/23 08:46:54;;;;;;;39.47;15.05;;;;;;;-4.02;nan;101654.84;5034842;28;20033;-77
2022/01/23 08:49:21;;;;;;;38.00;14.38;;;;;;;-4.02;nan;101652.25;5032751;28;20163;-77
2022/01/23 08:51:48;;;;;;;34.20;14.68;;;;;;;-3.95;nan;101651.78;5037603;28;20379;-76
2022/01/23 08:54:14;;;;;;;39.97;16.08;;;;;;;-3.89;nan;101647.97;5047136;28;20049;-75
2022/01/23 08:56:40;;;;;;;40.17;15.68;;;;;;;-3.89;nan;101635.13;5043370;28;20037;-74
2022/01/23 08:59:06;;;;;;;34.00;14.60;;;;;;;-3.80;nan;101634.50;5017436;28;20072;-75
2022/01/23 09:01:35;;;;;;;37.37;15.90;;;;;;;-3.64;nan;101648.03;5027194;28;20051;-75
2022/01/23 09:04:04;;;;;;;29.98;13.98;;;;;;;-3.50;nan;101648.84;5052000;28;20125;-75
2022/01/23 09:06:30;;;;;;;36.38;14.50;;;;;;;-3.64;nan;101613.72;5021743;28;20116;-75
2022/01/23 09:08:58;;;;;;;28.20;13.30;;;;;;;-3.46;nan;101622.78;5016566;28;20086;-75
2022/01/23 09:11:26;;;;;;;33.40;13.77;;;;;;;-3.28;nan;101623.31;5034045;28;20042;-75
2022/01/23 09:14:06;;;;;;;31.67;13.60;;;;;;;-3.08;nan;101621.13;5012732;28;20551;-75
2022/01/23 09:16:43;;;;;;;29.95;12.18;;;;;;;-3.01;nan;101620.56;5004244;28;20072;-75
2022/01/23 09:19:10;;;;;;;25.42;11.50;;;;;;;-2.80;nan;101630.34;5014820;28;20037;-78
2022/01/23 09:21:38;;;;;;;27.50;10.75;;;;;;;-2.68;nan;101628.63;5014923;28;20196;-77
2022/01/23 09:24:05;;;;;;;26.08;11.00;;;;;;;-2.79;nan;101594.13;5032587;28;20124;-78
2022/01/23 09:26:31;;;;;;;24.65;11.05;;;;;;;-2.43;nan;101630.31;5015289;28;20052;-76
2022/01/23 09:29:00;;;;;;;23.77;11.40;;;;;;;-2.21;nan;101642.47;5032951;28;20391;-75
2022/01/23 09:31:34;;;;;;;25.30;9.77;;;;;;;-2.11;nan;101643.44;5032687;28;20040;-75
2022/01/23 09:34:00;;;;;;;26.65;13.63;;;;;;;-2.13;nan;101637.59;5033911;28;20029;-74
2022/01/23 09:36:28;;;;;;;39.58;17.88;;;;;;;-2.03;nan;101627.44;5031935;28;20549;-74
2022/01/23 09:38:59;;;;;;;44.40;19.55;;;;;;;-1.90;nan;101625.56;5033288;28;20034;-74
2022/01/23 09:41:28;;;;;;;37.17;17.38;;;;;;;-1.89;nan;101608.31;5033064;28;20123;-74
2022/01/23 09:43:54;;;;;;;28.20;11.50;;;;;;;-1.74;nan;101626.09;5031541;28;20044;-76
2022/01/23 09:46:23;;;;;;;30.90;14.07;;;;;;;-1.76;nan;101609.88;5030519;28;20041;-74
2022/01/23 09:48:55;;;;;;;23.58;10.80;;;;;;;-1.66;nan;101622.09;5015290;28;20048;-73
2022/01/23 09:51:23;;;;;;;23.48;9.85;;;;;;;-1.73;nan;101601.09;5031647;28;20395;-76
2022/01/23 09:53:52;;;;;;;28.48;12.10;;;;;;;-1.50;nan;101607.91;5015749;28;20052;-76
2022/01/23 09:56:24;;;;;;;18.90;7.60;;;;;;;-1.50;nan;101607.91;5033258;28;20091;-75
2022/01/23 09:58:57;;;;;;;22.90;10.02;;;;;;;-1.34;nan;101619.66;5032664;28;20025;-71
2022/01/23 10:01:23;;;;;;;24.55;10.82;;;;;;;-1.32;nan;101605.72;5032866;28;20056;-73
2022/01/23 10:03:49;;;;;;;19.60;10.30;;;;;;;-1.11;nan;101618.72;5046363;28;20037;-73
2022/01/23 10:06:16;;;;;;;30.15;10.80;;;;;;;-1.02;nan;101622.38;5048448;28;20090;-73
2022/01/23 10:08:42;;;;;;;20.85;10.07;;;;;;;-0.92;nan;101606.97;5033300;28;20422;-74
2022/01/23 10:11:11;;;;;;;28.10;12.57;;;;;;;-0.81;nan;101614.72;5015009;28;20083;-73
2022/01/23 10:13:37;;;;;;;23.05;9.10;;;;;;;-0.79;nan;101611.97;5014343;28;20030;-73
2022/01/23 10:16:03;;;;;;;22.30;9.57;;;;;;;-0.87;nan;101600.47;5015630;28;20038;-74
2022/01/23 10:18:28;;;;;;;28.17;10.85;;;;;;;-0.93;nan;101587.22;5052752;28;20119;-73
2022/01/23 10:20:55;;;;;;;24.70;11.75;;;;;;;-0.77;nan;101612.69;5032831;28;20125;-71
2022/01/23 10:23:21;;;;;;;19.27;8.35;;;;;;;-0.79;nan;101604.22;5010083;28;20041;-72
2022/01/23 10:25:48;;;;;;;19.65;8.88;;;;;;;-0.81;nan;101596.59;5014041;28;20037;-73
2022/01/23 10:28:20;;;;;;;22.63;8.75;;;;;;;-0.77;nan;101610.91;5030655;28;20076;-72
2022/01/23 10:30:55;;;;;;;18.60;7.97;;;;;;;-0.77;nan;101605.75;5032219;28;20120;-69
2022/01/23 10:33:27;;;;;;;21.10;8.15;;;;;;;-0.81;nan;101612.13;5013642;28;20060;-69
2022/01/23 10:36:07;;;;;;;21.20;7.63;;;;;;;-0.82;nan;101601.88;5000389;28;20037;-70
2022/01/23 10:38:47;;;;;;;14.80;7.45;;;;;;;-0.68;nan;101604.22;5031470;28;20392;-70
2022/01/23 10:49:55;;;;;;;28.08;9.90;;;;;;;-0.38;nan;101590.59;5025689;28;20057;-69
2022/01/23 10:52:42;;;;;;;25.10;10.63;;;;;;;-0.37;nan;101592.22;5030231;28;20052;-71
2022/01/23 10:55:11;;;;;;;26.80;11.55;;;;;;;-0.31;nan;101609.88;5030753;28;20270;-71
2022/01/23 10:57:45;;;;;;;19.08;8.88;;;;;;;-0.30;nan;101602.91;5031161;28;20108;-72
2022/01/23 11:00:22;;;;;;;16.05;7.78;;;;;;;-0.39;nan;101598.47;5031539;28;20025;-71
2022/01/23 11:02:47;;;;;;;19.92;7.95;;;;;;;-0.39;nan;101596.69;5011188;28;20133;-73
2022/01/23 11:05:15;;;;;;;22.42;9.52;;;;;;;-0.35;nan;101585.16;5030673;28;20136;-73
2022/01/23 11:07:43;;;;;;;23.70;9.18;;;;;;;-0.31;nan;101583.97;5029980;28;20087;-73
2022/01/23 11:10:21;;;;;;;19.65;7.75;;;;;;;-0.27;nan;101577.59;5035668;28;20068;-74
2022/01/23 11:18:12;;;;;;;18.20;8.38;;;;;;;-0.17;nan;101600.97;5038152;28;20033;-73
2022/01/23 11:20:39;;;;;;;16.73;7.93;;;;;;;-0.12;nan;101600.59;5031950;28;20037;-73
2022/01/23 11:23:23;;;;;;;18.77;9.00;;;;;;;-0.11;nan;101599.66;5035437;28;20044;-73
2022/01/23 11:25:51;;;;;;;23.60;9.52;;;;;;;-0.07;nan;101598.47;5033804;28;20041;-73
2022/01/23 11:28:17;;;;;;;30.35;13.20;;;;;;;-0.18;nan;101578.63;5032371;28;20483;-73
2022/01/23 11:30:48;;;;;;;21.85;10.57;;;;;;;0.01;nan;101600.41;5033583;28;20052;-72
2022/01/23 11:33:17;;;;;;;18.02;9.70;;;;;;;-0.05;nan;101599.13;5016606;28;20533;-73
2022/01/23 11:35:44;;;;;;;17.95;9.13;;;;;;;-0.12;nan;101588.47;5016321;28;20435;-73
2022/01/23 11:38:13;;;;;;;17.25;8.45;;;;;;;-0.06;nan;101600.91;5034136;28;20033;-72
2022/01/23 11:54:49;;;;;;;20.52;8.63;;;;;;;0.06;nan;101593.09;5023350;28;20049;-73
2022/01/23 11:57:33;;;;;;;23.42;9.45;;;;;;;0.12;nan;101597.75;5035109;28;20548;-73
2022/01/23 12:00:11;;;;;;;20.17;9.27;;;;;;;0.15;nan;101595.75;5036621;28;20410;-73
2022/01/23 12:02:42;;;;;;;20.98;9.90;;;;;;;0.21;nan;101594.41;5039745;28;20024;-73
2022/01/23 12:05:15;;;;;;;18.80;9.65;;;;;;;0.25;nan;101600.97;5018354;28;20033;-73
2022/01/23 12:07:43;;;;;;;18.30;9.02;;;;;;;0.20;nan;101597.94;5033651;28;20029;-73
2022/01/23 12:10:28;;;;;;;19.50;9.00;;;;;;;0.29;nan;101598.94;5016260;28;20056;-74
2022/01/23 12:18:44;;;;;;;19.85;8.55;;;;;;;0.15;nan;101577.59;5026463;28;20033;-73
2022/01/23 12:21:29;;;;;;;25.27;8.00;;;;;;;0.29;nan;101594.59;5011616;28;20033;-74
2022/01/23 12:23:58;;;;;;;23.85;9.57;;;;;;;0.32;nan;101593.50;5030070;28;20065;-74
2022/01/23 12:26:23;;;;;;;17.80;8.48;;;;;;;0.22;nan;101570.16;5014461;28;20041;-73
2022/01/23 12:28:48;;;;;;;16.55;8.55;;;;;;;0.36;nan;101597.47;5010233;28;20039;-73
2022/01/23 12:31:14;;;;;;;16.65;8.50;;;;;;;0.33;nan;101593.38;5031663;28;20037;-73
2022/01/23 12:33:39;;;;;;;16.08;7.72;;;;;;;0.31;nan;101597.03;5032241;28;20112;-73
2022/01/23 12:36:05;;;;;;;19.65;9.50;;;;;;;0.33;nan;101595.16;5010720;28;20068;-72
2022/01/23 12:38:36;;;;;;;21.00;9.93;;;;;;;0.31;nan;101592.69;5031130;28;20037;-73
2022/01/23 12:41:38;;;;;;;26.35;10.07;;;;;;;0.34;nan;101592.44;5029683;28;20053;-73
2022/01/23 12:44:29;;;;;;;21.48;9.27;;;;;;;0.37;nan;101591.34;5010574;28;20556;-72
2022/01/23 12:47:01;;;;;;;12.95;6.82;;;;;;;0.29;nan;101586.81;5009415;28;20546;-70
2022/01/23 12:49:33;;;;;;;18.38;7.70;;;;;;;0.20;nan;101579.81;5029829;28;20069;-72
2022/01/23 12:52:11;;;;;;;17.20;7.65;;;;;;;0.32;nan;101590.94;5027078;28;20042;-70
2022/01/23 12:54:59;;;;;;;19.63;7.95;;;;;;;0.30;nan;101593.63;4984215;28;1180596;-71
2022/01/23 12:57:42;;;;;;;15.48;6.95;;;;;;;0.30;nan;101596.22;5029863;28;21080;-71
2022/01/23 13:00:24;;;;;;;14.60;7.15;;;;;;;0.25;nan;101588.03;5008933;28;20086;-71
2022/01/23 13:02:52;;;;;;;17.85;6.93;;;;;;;0.29;nan;101598.94;5027499;28;20029;-72
2022/01/23 13:05:18;;;;;;;14.77;6.53;;;;;;;0.20;nan;101582.41;5008957;28;20049;-71
2022/01/23 13:13:16;;;;;;;13.73;6.40;;;;;;;0.14;nan;101580.31;5026773;28;20077;-72
2022/01/23 13:16:02;;;;;;;12.70;5.75;;;;;;;0.21;nan;101594.41;5027898;28;20124;-71
2022/01/23 13:32:06;;;;;;;12.32;5.93;;;;;;;0.05;nan;101581.91;5028012;28;20037;-73
2022/01/23 13:34:45;;;;;;;13.02;6.00;;;;;;;0.07;nan;101590.34;5031046;28;20779;-72
2022/01/23 13:37:13;;;;;;;11.00;5.28;;;;;;;0.12;nan;101595.16;5030572;28;20041;-73
2022/01/23 13:40:04;;;;;;;17.63;6.30;;;;;;;0.06;nan;101590.50;5012627;28;20695;-71
2022/01/23 13:51:27;;;;;;;12.70;5.70;;;;;;;0.13;nan;101600.22;5031097;28;20115;-71
2022/01/23 13:59:37;;;;;;;11.55;5.35;;;;;;;0.12;nan;101598.59;5026584;28;20447;-70
2022/01/23 14:02:18;;;;;;;11.60;5.30;;;;;;;0.10;nan;101597.88;5032441;28;20083;-72
2022/01/23 14:04:50;;;;;;;8.60;4.55;;;;;;;0.07;nan;101590.34;5024220;28;20368;-71
2022/01/23 14:07:27;;;;;;;10.65;5.10;;;;;;;0.06;nan;101582.72;5031079;28;20031;-75
2022/01/23 14:10:10;;;;;;;12.85;5.72;;;;;;;-0.03;nan;101576.53;5003022;28;20064;-77
2022/01/23 14:12:35;;;;;;;18.38;6.57;;;;;;;0.01;nan;101577.13;5013127;28;20025;-77
2022/01/23 14:15:08;;;;;;;15.10;6.22;;;;;;;-0.03;nan;101579.13;5032668;28;20368;-76
2022/01/23 14:17:39;;;;;;;10.95;5.40;;;;;;;0.04;nan;101594.97;5038883;28;20033;-75
2022/01/23 14:20:16;;;;;;;11.93;5.70;;;;;;;0.02;nan;101597.69;5033580;28;20056;-76
2022/01/23 14:22:48;;;;;;;15.57;5.97;;;;;;;-0.02;nan;101593.72;5032834;28;20034;-76
2022/01/23 14:25:19;;;;;;;13.27;5.38;;;;;;;0.04;nan;101605.34;5031676;28;20030;-74
2022/01/23 14:28:00;;;;;;;13.15;5.82;;;;;;;-0.01;nan;101593.59;5028118;28;20025;-76
2022/01/23 14:30:28;;;;;;;11.70;5.32;;;;;;;-0.02;nan;101594.53;5011203;28;20399;-76
2022/01/23 14:32:54;;;;;;;12.75;5.40;;;;;;;-0.02;nan;101594.53;5012920;28;20036;-76
2022/01/23 14:35:25;;;;;;;13.40;6.13;;;;;;;0.02;nan;101599.47;5032089;28;20076;-74
2022/01/23 14:37:52;;;;;;;13.25;6.05;;;;;;;-0.01;nan;101605.72;5012431;28;20048;-75
2022/01/23 14:40:20;;;;;;;12.57;5.63;;;;;;;0.02;nan;101599.47;5031025;28;20120;-74
2022/01/23 14:43:09;;;;;;;15.15;6.60;;;;;;;0.01;nan;101595.25;5031811;28;20030;-75
2022/01/23 14:45:40;;;;;;;17.63;7.68;;;;;;;-0.02;nan;101604.09;5031256;28;20119;-74
2022/01/23 14:48:08;;;;;;;20.35;8.32;;;;;;;0.01;nan;101609.00;5013532;28;20040;-75
2022/01/23 14:50:36;;;;;;;19.20;8.02;;;;;;;-0.09;nan;101584.81;5032643;28;20120;-76
2022/01/23 14:53:11;;;;;;;19.60;8.32;;;;;;;-0.12;nan;101579.88;5030436;28;20063;-75
2022/01/23 14:55:38;;;;;;;16.52;7.43;;;;;;;-0.04;nan;101596.44;5013075;28;20099;-76
2022/01/23 14:58:04;;;;;;;13.15;6.47;;;;;;;-0.13;nan;101578.25;5012879;28;20121;-75
2022/01/23 15:00:32;;;;;;;18.90;6.47;;;;;;;0.00;nan;101609.97;5032808;28;20116;-76
2022/01/23 15:03:02;;;;;;;19.02;7.30;;;;;;;-0.02;nan;101606.66;5013198;28;20033;-75
2022/01/23 15:05:30;;;;;;;19.90;7.88;;;;;;;0.02;nan;101602.88;5030000;28;20033;-76
2022/01/23 15:07:57;;;;;;;22.10;9.05;;;;;;;-0.07;nan;101591.50;5033798;28;20033;-75
2022/01/23 15:10:23;;;;;;;14.15;6.35;;;;;;;-0.01;nan;101606.53;5033790;28;20033;-76
2022/01/23 15:12:48;;;;;;;15.60;6.80;;;;;;;-0.02;nan;101591.13;5029072;28;20049;-77
2022/01/23 15:15:14;;;;;;;16.27;8.18;;;;;;;-0.11;nan;101574.56;5030185;28;20037;-76
2022/01/23 15:17:39;;;;;;;14.85;6.03;;;;;;;-0.09;nan;101582.22;5031824;28;20033;-76
2022/01/23 15:20:06;;;;;;;14.75;5.95;;;;;;;0.02;nan;101602.88;5027717;28;20144;-76
2022/01/23 15:22:32;;;;;;;17.88;7.43;;;;;;;-0.06;nan;101589.75;5025771;28;20361;-77
2022/01/23 15:24:58;;;;;;;21.27;9.65;;;;;;;-0.02;nan;101599.72;5025843;28;20045;-76
2022/01/23 15:27:23;;;;;;;24.42;9.35;;;;;;;-0.25;nan;101560.16;5025921;28;20530;-76